createdAt,value
2016-09-15T00:00:48.473Z,23.27
2016-09-15T00:01:48.497Z,23.17
2016-09-15T00:02:48.561Z,23.2
2016-09-15T00:03:48.552Z,23.23
2016-09-15T00:04:48.581Z,23.27
2016-09-15T00:05:48.604Z,23.21
2016-09-15T00:06:48.632Z,23.24
2016-09-15T00:07:48.664Z,23.24
2016-09-15T00:08:48.684Z,23.18
2016-09-15T00:09:48.712Z,23.18
2016-09-15T00:10:48.740Z,23.08
2016-09-15T00:11:48.767Z,23.2
2016-09-15T00:12:48.793Z,23.09
2016-09-15T00:13:48.821Z,23.09
2016-09-15T00:14:48.852Z,23.12
2016-09-15T00:15:48.877Z,23.1
2016-09-15T00:16:48.908Z,23.03
2016-09-15T00:17:48.937Z,23.05
2016-09-15T00:18:48.953Z,22.98
2016-09-15T00:19:48.982Z,23.02
2016-09-15T00:20:49.013Z,22.96
2016-09-15T00:21:49.037Z,23
2016-09-15T00:22:49.066Z,23
2016-09-15T00:23:49.089Z,22.98
2016-09-15T00:24:49.112Z,22.94
2016-09-15T00:25:49.141Z,22.96
2016-09-15T00:26:49.167Z,22.94
2016-09-15T00:27:49.193Z,22.87
2016-09-15T00:28:49.221Z,22.9
2016-09-15T00:29:49.247Z,22.9
2016-09-15T00:30:49.277Z,22.87
2016-09-15T00:31:49.300Z,22.88
2016-09-15T00:32:49.327Z,22.81
2016-09-15T00:33:49.355Z,22.85
2016-09-15T00:34:49.382Z,22.84
2016-09-15T00:35:49.408Z,22.8
2016-09-15T00:36:49.437Z,22.8
2016-09-15T00:37:49.463Z,22.81
2016-09-15T00:38:49.489Z,22.83
2016-09-15T00:39:49.518Z,22.78
2016-09-15T00:40:49.542Z,22.72
2016-09-15T00:41:49.573Z,22.8
2016-09-15T00:42:49.596Z,22.69
2016-09-15T00:43:49.621Z,22.73
2016-09-15T00:44:49.651Z,22.72
2016-09-15T00:45:49.675Z,22.68
2016-09-15T00:46:49.703Z,22.7
2016-09-15T00:47:49.728Z,22.69
2016-09-15T00:48:49.757Z,22.65
2016-09-15T00:49:49.778Z,22.65
2016-09-15T00:50:49.808Z,22.62
2016-09-15T00:51:50.145Z,22.62
2016-09-15T00:52:49.865Z,22.6
2016-09-15T00:53:49.887Z,22.66
2016-09-15T00:54:49.911Z,22.68
2016-09-15T00:55:49.942Z,22.6
2016-09-15T00:56:49.973Z,22.65
2016-09-15T00:57:49.997Z,22.63
2016-09-15T00:58:50.032Z,22.55
2016-09-15T00:59:50.047Z,22.63
2016-09-15T01:00:50.077Z,22.54
2016-09-15T01:01:50.103Z,22.51
2016-09-15T01:02:50.126Z,22.5
2016-09-15T01:03:50.160Z,22.48
2016-09-15T01:04:50.176Z,22.53
2016-09-15T01:05:50.204Z,22.51
2016-09-15T01:06:50.231Z,22.53
2016-09-15T01:07:50.267Z,22.45
2016-09-15T01:08:50.281Z,22.45
2016-09-15T01:09:50.311Z,22.51
2016-09-15T01:10:50.335Z,22.48
2016-09-15T01:11:50.363Z,22.47
2016-09-15T01:12:50.390Z,22.53
2016-09-15T01:13:50.417Z,22.59
2016-09-15T01:14:50.445Z,22.55
2016-09-15T01:15:50.467Z,22.44
2016-09-15T01:16:50.497Z,22.5
2016-09-15T01:17:50.525Z,22.53
2016-09-15T01:18:50.550Z,22.51
2016-09-15T01:19:50.574Z,22.48
2016-09-15T01:20:50.600Z,22.44
2016-09-15T01:21:50.627Z,22.39
2016-09-15T01:22:50.649Z,22.43
2016-09-15T01:23:50.677Z,22.43
2016-09-15T01:24:50.715Z,22.43
2016-09-15T01:25:50.730Z,22.39
2016-09-15T01:26:50.760Z,22.36
2016-09-15T01:27:50.782Z,22.36
2016-09-15T01:28:50.812Z,22.35
2016-09-15T01:29:50.837Z,22.39
2016-09-15T01:30:50.866Z,22.35
2016-09-15T01:31:50.890Z,22.33
2016-09-15T01:32:50.913Z,22.29
2016-09-15T01:33:50.952Z,22.32
2016-09-15T01:34:50.967Z,22.3
2016-09-15T01:35:50.999Z,22.28
2016-09-15T01:36:51.331Z,22.29
2016-09-15T01:37:51.044Z,22.26
2016-09-15T01:38:51.084Z,22.22
2016-09-15T01:39:51.097Z,22.18
2016-09-15T01:40:51.123Z,22.23
2016-09-15T01:41:51.153Z,22.28
2016-09-15T01:42:51.176Z,22.22
2016-09-15T01:43:51.203Z,22.22
2016-09-15T01:44:51.226Z,22.26
2016-09-15T01:45:51.265Z,22.25
2016-09-15T01:46:51.291Z,22.17
2016-09-15T01:47:51.305Z,22.11
2016-09-15T01:48:51.333Z,22.15
2016-09-15T01:49:51.359Z,22.13
2016-09-15T01:50:51.384Z,22.14
2016-09-15T01:51:51.408Z,22.15
2016-09-15T01:52:51.446Z,22.11
2016-09-15T01:53:51.462Z,22.06
2016-09-15T01:54:51.487Z,22.08
2016-09-15T01:55:51.514Z,22.06
2016-09-15T01:56:51.541Z,22.07
2016-09-15T01:57:51.888Z,22.04
2016-09-15T01:58:51.590Z,22.04
2016-09-15T01:59:51.620Z,22.04
2016-09-15T02:00:51.653Z,22.11
2016-09-15T02:01:51.668Z,22.02
2016-09-15T02:02:51.699Z,22.07
2016-09-15T02:03:51.748Z,22.02
2016-09-15T02:04:51.746Z,22.06
2016-09-15T02:05:51.771Z,22.02
2016-09-15T02:06:51.800Z,22.02
2016-09-15T02:07:51.825Z,22.04
2016-09-15T02:08:51.852Z,22.02
2016-09-15T02:09:51.875Z,22.02
2016-09-15T02:10:51.901Z,21.98
2016-09-15T02:11:51.927Z,22
2016-09-15T02:12:51.956Z,21.99
2016-09-15T02:13:51.984Z,21.99
2016-09-15T02:14:52.008Z,21.99
2016-09-15T02:15:52.030Z,21.91
2016-09-15T02:16:52.070Z,21.98
2016-09-15T02:17:52.082Z,21.96
2016-09-15T02:18:52.110Z,21.98
2016-09-15T02:19:52.132Z,21.91
2016-09-15T02:20:52.159Z,21.95
2016-09-15T02:21:52.186Z,21.77
2016-09-15T02:22:52.210Z,21.8
2016-09-15T02:23:52.243Z,21.82
2016-09-15T02:24:52.264Z,21.82
2016-09-15T02:25:52.287Z,21.79
2016-09-15T02:26:52.320Z,21.88
2016-09-15T02:27:52.342Z,21.79
2016-09-15T02:28:52.374Z,21.82
2016-09-15T02:29:52.392Z,21.76
2016-09-15T02:30:52.422Z,21.82
2016-09-15T02:31:52.439Z,21.8
2016-09-15T02:32:52.476Z,21.77
2016-09-15T02:33:52.501Z,21.69
2016-09-15T02:34:52.519Z,21.77
2016-09-15T02:35:52.542Z,21.69
2016-09-15T02:36:52.573Z,21.7
2016-09-15T02:37:52.614Z,21.73
2016-09-15T02:38:52.622Z,21.7
2016-09-15T02:39:52.650Z,21.72
2016-09-15T02:40:52.677Z,21.7
2016-09-15T02:41:52.697Z,21.69
2016-09-15T02:42:52.723Z,21.72
2016-09-15T02:43:52.750Z,21.72
2016-09-15T02:44:52.776Z,21.69
2016-09-15T02:45:52.805Z,21.72
2016-09-15T02:46:52.825Z,21.66
2016-09-15T02:47:52.854Z,21.57
2016-09-15T02:48:52.876Z,21.66
2016-09-15T02:49:52.905Z,21.64
2016-09-15T02:50:52.926Z,21.58
2016-09-15T02:51:52.953Z,21.54
2016-09-15T02:52:52.978Z,21.54
2016-09-15T02:53:53.003Z,21.54
2016-09-15T02:54:53.027Z,21.58
2016-09-15T02:55:53.057Z,21.57
2016-09-15T02:56:53.091Z,21.58
2016-09-15T02:57:53.106Z,21.61
2016-09-15T02:58:53.132Z,21.55
2016-09-15T02:59:53.168Z,21.58
2016-09-15T03:00:53.187Z,21.43
2016-09-15T03:01:53.210Z,21.45
2016-09-15T03:02:53.234Z,21.51
2016-09-15T03:03:53.260Z,21.46
2016-09-15T03:04:53.287Z,21.51
2016-09-15T03:05:53.309Z,21.48
2016-09-15T03:06:53.337Z,21.4
2016-09-15T03:07:53.360Z,21.39
2016-09-15T03:08:53.391Z,21.43
2016-09-15T03:09:53.417Z,21.39
2016-09-15T03:10:53.438Z,21.45
2016-09-15T03:11:53.459Z,21.43
2016-09-15T03:12:53.497Z,21.42
2016-09-15T03:13:53.515Z,21.36
2016-09-15T03:14:53.540Z,21.39
2016-09-15T03:15:53.563Z,21.36
2016-09-15T03:16:53.591Z,21.4
2016-09-15T03:17:53.616Z,21.4
2016-09-15T03:18:53.642Z,21.35
2016-09-15T03:19:53.665Z,21.36
2016-09-15T03:20:53.695Z,21.33
2016-09-15T03:21:53.717Z,21.39
2016-09-15T03:22:53.748Z,21.3
2016-09-15T03:23:53.768Z,21.29
2016-09-15T03:24:53.798Z,21.27
2016-09-15T03:25:53.824Z,21.35
2016-09-15T03:26:53.850Z,21.24
2016-09-15T03:27:54.180Z,21.29
2016-09-15T03:28:54.207Z,21.29
2016-09-15T03:29:53.928Z,21.25
2016-09-15T03:30:54.266Z,21.24
2016-09-15T03:31:54.289Z,21.25
2016-09-15T03:32:53.995Z,21.25
2016-09-15T03:33:54.022Z,21.25
2016-09-15T03:34:54.051Z,21.21
2016-09-15T03:35:54.077Z,21.21
2016-09-15T03:36:54.099Z,21.25
2016-09-15T03:37:54.122Z,21.29
2016-09-15T03:38:54.149Z,21.24
2016-09-15T03:39:54.172Z,21.24
2016-09-15T03:40:54.211Z,21.17
2016-09-15T03:41:54.224Z,21.21
2016-09-15T03:42:54.257Z,21.24
2016-09-15T03:43:54.273Z,21.2
2016-09-15T03:44:54.300Z,21.18
2016-09-15T03:45:54.329Z,21.2
2016-09-15T03:46:54.351Z,21.17
2016-09-15T03:47:54.380Z,21.11
2016-09-15T03:48:54.396Z,21.11
2016-09-15T03:49:54.424Z,21.12
2016-09-15T03:50:54.448Z,21.05
2016-09-15T03:51:54.473Z,21.02
2016-09-15T03:52:54.501Z,21.05
2016-09-15T03:53:54.531Z,21.05
2016-09-15T03:54:54.867Z,21.03
2016-09-15T03:55:54.576Z,21
2016-09-15T03:56:54.599Z,21.03
2016-09-15T03:57:54.625Z,21.05
2016-09-15T03:58:54.649Z,20.99
2016-09-15T03:59:54.671Z,20.96
2016-09-15T04:00:54.701Z,21.06
2016-09-15T04:01:54.725Z,20.99
2016-09-15T04:02:54.752Z,20.96
2016-09-15T04:03:54.776Z,20.93
2016-09-15T04:04:54.799Z,20.96
2016-09-15T04:05:54.823Z,20.9
2016-09-15T04:06:54.846Z,20.9
2016-09-15T04:07:54.873Z,20.93
2016-09-15T04:08:54.898Z,20.92
2016-09-15T04:09:54.923Z,20.81
2016-09-15T04:10:54.950Z,20.84
2016-09-15T04:11:54.980Z,20.87
2016-09-15T04:12:55.001Z,20.87
2016-09-15T04:13:55.048Z,20.87
2016-09-15T04:14:55.056Z,20.9
2016-09-15T04:15:55.076Z,20.81
2016-09-15T04:16:55.108Z,20.9
2016-09-15T04:17:55.123Z,20.81
2016-09-15T04:18:55.149Z,20.82
2016-09-15T04:19:55.173Z,20.84
2016-09-15T04:20:55.199Z,20.77
2016-09-15T04:21:55.223Z,20.77
2016-09-15T04:22:55.250Z,20.78
2016-09-15T04:23:55.277Z,20.77
2016-09-15T04:24:55.297Z,20.77
2016-09-15T04:25:55.372Z,20.72
2016-09-15T04:26:55.346Z,20.7
2016-09-15T04:27:55.374Z,20.75
2016-09-15T04:28:55.397Z,20.72
2016-09-15T04:29:55.441Z,20.69
2016-09-15T04:30:55.454Z,20.7
2016-09-15T04:31:55.472Z,20.67
2016-09-15T04:32:55.509Z,20.62
2016-09-15T04:33:55.520Z,20.66
2016-09-15T04:34:55.548Z,20.63
2016-09-15T04:35:55.574Z,20.66
2016-09-15T04:36:55.600Z,20.62
2016-09-15T04:37:55.624Z,20.6
2016-09-15T04:38:55.648Z,20.66
2016-09-15T04:39:55.676Z,20.67
2016-09-15T04:40:55.701Z,20.69
2016-09-15T04:41:55.731Z,20.59
2016-09-15T04:42:55.748Z,20.66
2016-09-15T04:43:55.772Z,20.6
2016-09-15T04:44:55.814Z,20.6
2016-09-15T04:45:55.820Z,20.5
2016-09-15T04:46:55.849Z,20.58
2016-09-15T04:47:55.870Z,20.55
2016-09-15T04:48:55.892Z,20.58
2016-09-15T04:49:55.933Z,20.55
2016-09-15T04:50:55.942Z,20.52
2016-09-15T04:51:55.970Z,20.55
2016-09-15T04:52:56.130Z,20.55
2016-09-15T04:53:56.020Z,20.47
2016-09-15T04:54:56.043Z,20.5
2016-09-15T04:55:56.383Z,20.44
2016-09-15T04:56:56.095Z,20.44
2016-09-15T04:57:56.119Z,20.5
2016-09-15T04:58:56.145Z,20.47
2016-09-15T04:59:56.168Z,20.51
2016-09-15T05:00:56.194Z,20.47
2016-09-15T05:01:56.217Z,20.47
2016-09-15T05:02:56.241Z,20.48
2016-09-15T05:03:56.269Z,20.41
2016-09-15T05:04:56.297Z,20.41
2016-09-15T05:05:56.310Z,20.43
2016-09-15T05:06:56.341Z,20.39
2016-09-15T05:07:56.369Z,20.52
2016-09-15T05:08:56.390Z,20.41
2016-09-15T05:09:56.727Z,20.4
2016-09-15T05:10:56.439Z,20.36
2016-09-15T05:11:56.461Z,20.44
2016-09-15T05:12:56.489Z,20.47
2016-09-15T05:13:56.510Z,20.29
2016-09-15T05:14:56.534Z,20.36
2016-09-15T05:15:56.877Z,20.34
2016-09-15T05:16:56.588Z,20.39
2016-09-15T05:17:56.610Z,20.4
2016-09-15T05:18:56.752Z,20.26
2016-09-15T05:19:56.663Z,20.29
2016-09-15T05:20:56.697Z,20.31
2016-09-15T05:21:56.715Z,20.29
2016-09-15T05:22:57.051Z,20.28
2016-09-15T05:23:56.756Z,20.29
2016-09-15T05:24:56.783Z,20.25
2016-09-15T05:25:56.807Z,20.26
2016-09-15T05:26:56.829Z,20.28
2016-09-15T05:27:56.856Z,20.26
2016-09-15T05:28:56.887Z,20.31
2016-09-15T05:29:56.909Z,20.29
2016-09-15T05:30:56.927Z,20.24
2016-09-15T05:31:56.958Z,20.26
2016-09-15T05:32:56.979Z,20.18
2016-09-15T05:33:57.005Z,20.28
2016-09-15T05:34:57.034Z,20.14
2016-09-15T05:35:57.053Z,20.28
2016-09-15T05:36:57.080Z,20.25
2016-09-15T05:37:57.101Z,20.26
2016-09-15T05:38:57.123Z,20.25
2016-09-15T05:39:57.157Z,20.29
2016-09-15T05:40:57.175Z,20.28
2016-09-15T05:41:57.201Z,20.26
2016-09-15T05:42:57.224Z,20.31
2016-09-15T05:43:57.247Z,20.25
2016-09-15T05:44:57.282Z,20.26
2016-09-15T05:45:57.295Z,20.26
2016-09-15T05:46:57.321Z,20.28
2016-09-15T05:47:57.346Z,20.29
2016-09-15T05:48:57.369Z,20.36
2016-09-15T05:49:57.396Z,20.37
2016-09-15T05:50:57.429Z,20.34
2016-09-15T05:51:57.443Z,20.39
2016-09-15T05:52:57.466Z,20.31
2016-09-15T05:53:57.493Z,20.36
2016-09-15T05:54:57.514Z,20.36
2016-09-15T05:55:57.540Z,20.37
2016-09-15T05:56:57.564Z,20.43
2016-09-15T05:57:57.588Z,20.32
2016-09-15T05:58:57.623Z,20.36
2016-09-15T05:59:57.640Z,20.43
2016-09-15T06:00:57.665Z,20.43
2016-09-15T06:01:57.688Z,20.37
2016-09-15T06:02:57.712Z,20.36
2016-09-15T06:03:57.735Z,20.5
2016-09-15T06:04:57.761Z,20.48
2016-09-15T06:05:57.783Z,20.51
2016-09-15T06:06:57.811Z,20.4
2016-09-15T06:07:57.830Z,20.48
2016-09-15T06:08:57.861Z,20.55
2016-09-15T06:09:57.884Z,20.55
2016-09-15T06:10:57.910Z,20.58
2016-09-15T06:11:57.931Z,20.51
2016-09-15T06:12:57.955Z,20.66
2016-09-15T06:13:57.983Z,20.6
2016-09-15T06:14:58.004Z,20.7
2016-09-15T06:15:58.032Z,20.74
2016-09-15T06:16:58.053Z,20.84
2016-09-15T06:17:58.082Z,20.75
2016-09-15T06:18:58.104Z,20.87
2016-09-15T06:19:58.131Z,20.82
2016-09-15T06:20:58.163Z,20.84
2016-09-15T06:21:58.176Z,20.88
2016-09-15T06:22:58.210Z,20.92
2016-09-15T06:23:58.228Z,20.96
2016-09-15T06:24:58.259Z,20.92
2016-09-15T06:25:58.274Z,20.97
2016-09-15T06:26:58.298Z,21.05
2016-09-15T06:27:58.327Z,21.05
2016-09-15T06:28:58.347Z,21.14
2016-09-15T06:29:58.376Z,21.12
2016-09-15T06:30:58.400Z,21.2
2016-09-15T06:31:58.425Z,21.2
2016-09-15T06:32:58.770Z,21.25
2016-09-15T06:33:58.482Z,21.21
2016-09-15T06:34:58.501Z,21.29
2016-09-15T06:35:58.518Z,21.33
2016-09-15T06:36:58.566Z,21.3
2016-09-15T06:37:58.567Z,21.36
2016-09-15T06:38:58.913Z,21.42
2016-09-15T06:39:58.618Z,21.42
2016-09-15T06:40:58.645Z,21.45
2016-09-15T06:41:58.669Z,21.43
2016-09-15T06:42:58.693Z,21.52
2016-09-15T06:43:58.715Z,21.61
2016-09-15T06:44:58.743Z,21.52
2016-09-15T06:45:58.767Z,21.6
2016-09-15T06:46:58.789Z,21.66
2016-09-15T06:47:58.814Z,21.69
2016-09-15T06:48:58.838Z,21.73
2016-09-15T06:49:58.864Z,21.79
2016-09-15T06:50:58.892Z,21.8
2016-09-15T06:51:58.911Z,21.8
2016-09-15T06:52:58.943Z,21.92
2016-09-15T06:53:58.963Z,21.91
2016-09-15T06:54:58.993Z,21.98
2016-09-15T06:55:59.012Z,22.06
2016-09-15T06:56:59.039Z,21.98
2016-09-15T06:57:59.061Z,22
2016-09-15T06:58:59.087Z,22.07
2016-09-15T06:59:59.114Z,22.1
2016-09-15T07:00:59.143Z,22.17
2016-09-15T07:01:59.164Z,22.18
2016-09-15T07:02:59.194Z,22.26
2016-09-15T07:03:59.223Z,22.28
2016-09-15T07:04:59.235Z,22.41
2016-09-15T07:05:59.260Z,22.38
2016-09-15T07:06:59.286Z,22.41
2016-09-15T07:07:59.310Z,22.5
2016-09-15T07:08:59.342Z,22.45
2016-09-15T07:09:59.357Z,22.48
2016-09-15T07:10:59.391Z,22.45
2016-09-15T07:11:59.412Z,22.54
2016-09-15T07:12:59.561Z,22.57
2016-09-15T07:13:59.546Z,22.59
2016-09-15T07:14:59.577Z,22.72
2016-09-15T07:15:59.586Z,22.68
2016-09-15T07:16:59.596Z,22.68
2016-09-15T07:17:59.657Z,22.78
2016-09-15T07:18:59.663Z,22.73
2016-09-15T07:19:59.671Z,22.85
2016-09-15T07:20:59.680Z,22.88
2016-09-15T07:21:59.680Z,22.9
2016-09-15T07:22:59.688Z,22.94
2016-09-15T07:23:59.813Z,23.03
2016-09-15T07:24:59.822Z,22.98
2016-09-15T07:25:59.829Z,23.15
2016-09-15T07:26:59.856Z,23.15
2016-09-15T07:27:59.863Z,23.15
2016-09-15T07:28:59.871Z,23.23
2016-09-15T07:29:59.880Z,23.2
2016-09-15T07:30:59.887Z,23.23
2016-09-15T07:32:00.266Z,23.31
2016-09-15T07:32:59.935Z,23.36
2016-09-15T07:33:59.963Z,23.44
2016-09-15T07:34:59.992Z,23.5
2016-09-15T07:36:00.014Z,23.48
2016-09-15T07:37:00.042Z,23.61
2016-09-15T07:38:00.067Z,23.63
2016-09-15T07:39:00.091Z,23.73
2016-09-15T07:40:00.117Z,23.77
2016-09-15T07:41:00.141Z,23.77
2016-09-15T07:42:00.172Z,23.78
2016-09-15T07:43:00.191Z,23.87
2016-09-15T07:44:00.216Z,23.87
2016-09-15T07:45:00.246Z,23.91
2016-09-15T07:46:00.275Z,23.93
2016-09-15T07:47:00.298Z,24.01
2016-09-15T07:48:00.511Z,24.11
2016-09-15T07:49:00.353Z,24.11
2016-09-15T07:50:00.370Z,24.2
2016-09-15T07:51:00.448Z,24.26
2016-09-15T07:52:00.428Z,24.3
2016-09-15T07:53:00.448Z,24.39
2016-09-15T07:54:00.487Z,24.29
2016-09-15T07:55:00.501Z,24.38
2016-09-15T07:56:00.529Z,24.42
2016-09-15T07:57:00.569Z,24.47
2016-09-15T07:58:00.581Z,24.51
2016-09-15T07:59:00.603Z,24.6
2016-09-15T08:00:00.640Z,24.63
2016-09-15T08:01:00.655Z,24.65
2016-09-15T08:02:00.699Z,24.7
2016-09-15T08:03:00.711Z,24.78
2016-09-15T08:04:00.736Z,24.81
2016-09-15T08:05:00.762Z,24.84
2016-09-15T08:06:00.793Z,24.81
2016-09-15T08:07:00.810Z,24.88
2016-09-15T08:08:00.852Z,24.99
2016-09-15T08:09:00.865Z,25.04
2016-09-15T08:10:00.970Z,25.11
2016-09-15T08:11:00.923Z,25.1
2016-09-15T08:12:00.947Z,25.13
2016-09-15T08:13:00.974Z,25.18
2016-09-15T08:14:01.005Z,25.28
2016-09-15T08:15:01.028Z,25.33
2016-09-15T08:16:01.073Z,25.32
2016-09-15T08:17:01.083Z,25.35
2016-09-15T08:18:01.102Z,25.4
2016-09-15T08:19:01.127Z,25.59
2016-09-15T08:20:01.158Z,25.58
2016-09-15T08:21:01.179Z,25.6
2016-09-15T08:22:01.213Z,25.58
2016-09-15T08:23:01.232Z,25.55
2016-09-15T08:24:01.270Z,25.65
2016-09-15T08:25:01.287Z,25.7
2016-09-15T08:26:01.314Z,25.73
2016-09-15T08:27:01.340Z,25.73
2016-09-15T08:28:01.369Z,25.77
2016-09-15T08:29:01.506Z,25.85
2016-09-15T08:30:01.828Z,25.88
2016-09-15T08:31:01.588Z,26
2016-09-15T08:32:01.564Z,25.99
2016-09-15T08:33:01.736Z,26.03
2016-09-15T08:34:01.652Z,26.07
2016-09-15T08:35:01.873Z,26.06
2016-09-15T08:36:01.795Z,26.09
2016-09-15T08:37:01.803Z,26.15
2016-09-15T08:38:01.818Z,26.13
2016-09-15T08:39:01.827Z,26.28
2016-09-15T08:40:01.825Z,26.33
2016-09-15T08:41:01.835Z,26.31
2016-09-15T08:42:01.958Z,26.37
2016-09-15T08:43:01.854Z,26.41
2016-09-15T08:44:01.913Z,26.45
2016-09-15T08:45:02.211Z,26.52
2016-09-15T08:46:01.933Z,26.62
2016-09-15T08:47:01.884Z,26.62
2016-09-15T08:48:01.901Z,26.65
2016-09-15T08:49:02.250Z,26.66
2016-09-15T08:50:02.019Z,26.75
2016-09-15T08:51:01.985Z,26.88
2016-09-15T08:52:02.011Z,26.75
2016-09-15T08:53:02.039Z,26.84
2016-09-15T08:54:02.069Z,26.85
2016-09-15T08:55:02.101Z,26.93
2016-09-15T08:56:02.122Z,26.9
2016-09-15T08:57:02.150Z,26.99
2016-09-15T08:58:02.176Z,27.07
2016-09-15T08:59:02.208Z,27.05
2016-09-15T09:00:02.231Z,27.17
2016-09-15T09:01:02.258Z,27.17
2016-09-15T09:02:02.295Z,27.21
2016-09-15T09:03:02.314Z,27.25
2016-09-15T09:04:02.339Z,27.29
2016-09-15T09:05:02.374Z,27.32
2016-09-15T09:06:02.396Z,27.4
2016-09-15T09:07:02.422Z,27.47
2016-09-15T09:08:02.450Z,27.51
2016-09-15T09:09:02.481Z,27.48
2016-09-15T09:10:02.524Z,27.55
2016-09-15T09:11:02.536Z,27.55
2016-09-15T09:12:02.557Z,27.65
2016-09-15T09:13:02.599Z,27.7
2016-09-15T09:14:02.621Z,27.83
2016-09-15T09:15:02.647Z,27.77
2016-09-15T09:16:02.713Z,27.87
2016-09-15T09:17:02.701Z,27.85
2016-09-15T09:18:02.738Z,27.87
2016-09-15T09:19:02.763Z,27.95
2016-09-15T09:20:02.785Z,27.98
2016-09-15T09:21:02.809Z,27.95
2016-09-15T09:22:02.861Z,28.04
2016-09-15T09:23:02.872Z,28.07
2016-09-15T09:24:02.918Z,28.1
2016-09-15T09:25:02.925Z,28.14
2016-09-15T09:26:02.953Z,28.25
2016-09-15T09:27:02.994Z,28.23
2016-09-15T09:28:03.012Z,28.25
2016-09-15T09:29:03.035Z,28.26
2016-09-15T09:30:03.074Z,28.38
2016-09-15T09:31:03.096Z,28.38
2016-09-15T09:32:03.130Z,28.41
2016-09-15T09:33:03.150Z,28.47
2016-09-15T09:34:03.177Z,28.49
2016-09-15T09:35:03.209Z,28.47
2016-09-15T09:36:03.257Z,28.6
2016-09-15T09:37:03.264Z,28.63
2016-09-15T09:38:03.330Z,28.62
2016-09-15T09:39:03.331Z,28.69
2016-09-15T09:40:03.349Z,28.78
2016-09-15T09:41:03.381Z,28.74
2016-09-15T09:42:03.409Z,28.79
2016-09-15T09:43:03.558Z,28.78
2016-09-15T09:44:03.597Z,28.85
2016-09-15T09:45:03.581Z,28.84
2016-09-15T09:46:03.608Z,28.84
2016-09-15T09:47:03.789Z,28.93
2016-09-15T09:48:03.791Z,29.01
2016-09-15T09:49:03.797Z,28.98
2016-09-15T09:50:03.938Z,29.01
2016-09-15T09:51:04.164Z,29.07
2016-09-15T09:52:03.862Z,29.17
2016-09-15T09:53:03.862Z,29.07
2016-09-15T09:54:03.870Z,29.14
2016-09-15T09:55:03.878Z,29.22
2016-09-15T09:56:03.889Z,29.22
2016-09-15T09:57:04.259Z,29.29
2016-09-15T09:58:03.957Z,29.29
2016-09-15T09:59:03.964Z,29.36
2016-09-15T10:00:03.984Z,29.38
2016-09-15T10:01:03.983Z,29.44
2016-09-15T10:02:03.994Z,29.49
2016-09-15T10:03:04.325Z,29.5
2016-09-15T10:04:04.038Z,29.57
2016-09-15T10:05:04.071Z,29.54
2016-09-15T10:06:04.103Z,29.56
2016-09-15T10:07:04.128Z,29.6
2016-09-15T10:08:04.155Z,29.71
2016-09-15T10:09:04.187Z,29.71
2016-09-15T10:10:04.214Z,29.71
2016-09-15T10:11:04.246Z,29.73
2016-09-15T10:12:04.275Z,29.79
2016-09-15T10:13:04.617Z,29.78
2016-09-15T10:14:04.338Z,29.87
2016-09-15T10:15:04.369Z,29.88
2016-09-15T10:16:04.391Z,29.86
2016-09-15T10:17:04.532Z,29.97
2016-09-15T10:18:04.543Z,29.97
2016-09-15T10:19:04.713Z,30.05
2016-09-15T10:20:04.733Z,30.06
2016-09-15T10:21:04.745Z,30.08
2016-09-15T10:22:04.749Z,30
2016-09-15T10:23:04.598Z,30.08
2016-09-15T10:24:04.628Z,30.12
2016-09-15T10:25:04.658Z,30.21
2016-09-15T10:26:04.772Z,30.19
2016-09-15T10:27:04.716Z,30.25
2016-09-15T10:28:04.790Z,30.28
2016-09-15T10:29:04.798Z,30.34
2016-09-15T10:30:04.807Z,30.37
2016-09-15T10:31:04.838Z,30.34
2016-09-15T10:32:04.867Z,30.47
2016-09-15T10:33:05.224Z,30.5
2016-09-15T10:34:04.970Z,30.51
2016-09-15T10:35:04.960Z,30.53
2016-09-15T10:36:05.016Z,30.53
2016-09-15T10:37:05.017Z,30.68
2016-09-15T10:38:05.045Z,30.61
2016-09-15T10:39:05.075Z,30.65
2016-09-15T10:40:05.121Z,30.69
2016-09-15T10:41:05.150Z,30.68
2016-09-15T10:42:05.186Z,30.68
2016-09-15T10:43:05.194Z,30.83
2016-09-15T10:44:05.342Z,30.81
2016-09-15T10:45:05.349Z,30.84
2016-09-15T10:46:05.455Z,30.87
2016-09-15T10:47:05.530Z,30.88
2016-09-15T10:48:05.546Z,30.97
2016-09-15T10:49:05.493Z,31
2016-09-15T10:50:05.461Z,31.09
2016-09-15T10:51:05.438Z,30.99
2016-09-15T10:52:05.465Z,31.09
2016-09-15T10:53:05.505Z,31.12
2016-09-15T10:54:05.584Z,31.14
2016-09-15T10:55:05.564Z,31.17
2016-09-15T10:56:05.588Z,31.25
2016-09-15T10:57:05.620Z,31.25
2016-09-15T10:58:05.657Z,31.29
2016-09-15T10:59:05.689Z,31.27
2016-09-15T11:00:05.711Z,31.37
2016-09-15T11:01:05.749Z,31.34
2016-09-15T11:02:05.775Z,31.36
2016-09-15T11:03:05.806Z,31.31
2016-09-15T11:04:05.849Z,31.43
2016-09-15T11:05:05.863Z,31.44
2016-09-15T11:06:05.898Z,31.4
2016-09-15T11:07:05.926Z,31.42
2016-09-15T11:08:05.958Z,31.4
2016-09-15T11:09:06.302Z,31.43
2016-09-15T11:10:06.021Z,31.46
2016-09-15T11:11:06.054Z,31.51
2016-09-15T11:12:06.081Z,31.49
2016-09-15T11:13:06.119Z,31.56
2016-09-15T11:14:06.141Z,31.58
2016-09-15T11:15:06.184Z,31.61
2016-09-15T11:16:06.260Z,31.52
2016-09-15T11:17:06.269Z,31.54
2016-09-15T11:18:06.272Z,31.64
2016-09-15T11:19:06.413Z,31.7
2016-09-15T11:20:06.421Z,31.73
2016-09-15T11:21:06.456Z,31.73
2016-09-15T11:22:06.465Z,31.81
2016-09-15T11:23:06.732Z,31.78
2016-09-15T11:24:06.472Z,31.84
2016-09-15T11:25:06.521Z,31.9
2016-09-15T11:26:06.530Z,31.92
2016-09-15T11:27:06.545Z,31.89
2016-09-15T11:28:06.580Z,31.92
2016-09-15T11:29:06.608Z,31.9
2016-09-15T11:30:06.639Z,31.94
2016-09-15T11:31:06.670Z,31.87
2016-09-15T11:32:06.703Z,31.9
2016-09-15T11:33:06.730Z,31.94
2016-09-15T11:34:06.767Z,31.93
2016-09-15T11:35:06.806Z,31.93
2016-09-15T11:36:06.827Z,31.9
2016-09-15T11:37:06.861Z,31.89
2016-09-15T11:38:07.209Z,31.97
2016-09-15T11:39:06.919Z,31.84
2016-09-15T11:40:06.952Z,31.93
2016-09-15T11:41:06.985Z,31.89
2016-09-15T11:42:07.013Z,31.99
2016-09-15T11:43:07.051Z,32.01
2016-09-15T11:44:07.081Z,32.07
2016-09-15T11:45:07.108Z,32.03
2016-09-15T11:46:07.154Z,32.07
2016-09-15T11:47:07.182Z,32.04
2016-09-15T11:48:07.205Z,32.12
2016-09-15T11:49:07.234Z,32.09
2016-09-15T11:50:07.318Z,32.16
2016-09-15T11:51:07.296Z,32.18
2016-09-15T11:52:07.330Z,32.16
2016-09-15T11:53:07.358Z,32.11
2016-09-15T11:54:07.393Z,32.12
2016-09-15T11:55:07.424Z,32.12
2016-09-15T11:56:07.457Z,32.22
2016-09-15T11:57:07.488Z,32.15
2016-09-15T11:58:07.519Z,32.14
2016-09-15T11:59:07.552Z,32.18
2016-09-15T12:00:07.593Z,32.29
2016-09-15T12:01:07.636Z,32.22
2016-09-15T12:02:07.644Z,32.21
2016-09-15T12:03:07.680Z,32.3
2016-09-15T12:04:07.709Z,32.27
2016-09-15T12:05:07.738Z,32.29
2016-09-15T12:06:07.771Z,32.21
2016-09-15T12:07:07.800Z,32.26
2016-09-15T12:08:07.838Z,32.3
2016-09-15T12:09:07.863Z,32.15
2016-09-15T12:10:07.900Z,32.15
2016-09-15T12:11:07.938Z,32.22
2016-09-15T12:12:07.966Z,32.11
2016-09-15T12:13:07.996Z,32.14
2016-09-15T12:14:08.026Z,32.14
2016-09-15T12:15:08.062Z,32.08
2016-09-15T12:16:08.088Z,32.16
2016-09-15T12:17:08.239Z,32.16
2016-09-15T12:18:08.243Z,32.19
2016-09-15T12:19:08.417Z,32.11
2016-09-15T12:20:08.425Z,32.21
2016-09-15T12:21:08.440Z,32.22
2016-09-15T12:22:08.437Z,32.15
2016-09-15T12:23:08.445Z,32.18
2016-09-15T12:24:08.456Z,32.19
2016-09-15T12:25:08.466Z,32.21
2016-09-15T12:26:08.606Z,32.29
2016-09-15T12:27:08.611Z,32.26
2016-09-15T12:28:08.934Z,32.26
2016-09-15T12:29:08.594Z,32.31
2016-09-15T12:30:08.590Z,32.31
2016-09-15T12:31:08.597Z,32.31
2016-09-15T12:32:08.608Z,32.23
2016-09-15T12:33:08.629Z,32.27
2016-09-15T12:34:08.657Z,32.29
2016-09-15T12:35:08.699Z,32.3
2016-09-15T12:36:08.725Z,32.27
2016-09-15T12:37:08.756Z,32.26
2016-09-15T12:38:08.787Z,32.29
2016-09-15T12:39:08.820Z,32.27
2016-09-15T12:40:08.851Z,32.23
2016-09-15T12:41:08.883Z,32.3
2016-09-15T12:42:08.912Z,32.31
2016-09-15T12:43:08.948Z,32.3
2016-09-15T12:44:08.979Z,32.27
2016-09-15T12:45:09.009Z,32.26
2016-09-15T12:46:09.039Z,32.18
2016-09-15T12:47:09.392Z,32.15
2016-09-15T12:48:09.102Z,32.22
2016-09-15T12:49:09.145Z,32.15
2016-09-15T12:50:09.167Z,32.19
2016-09-15T12:51:09.205Z,32.18
2016-09-15T12:52:09.235Z,32.15
2016-09-15T12:53:09.267Z,32.14
2016-09-15T12:54:09.294Z,32.18
2016-09-15T12:55:09.335Z,32.15
2016-09-15T12:56:09.361Z,32.29
2016-09-15T12:57:09.390Z,32.29